Terminal Aerodrome Forecast
Issued by NWS Upton, NY

Home | Current Version | Previous Version | Text Only | Print | Product List | Glossary On
Versions: 1 2 3 4 5 6 7 8 9 10 11 12 13 14 15 16 17 18 19 20 21 22 23 24 25 26 27 28 29 30 31 32 33 34
291
FTUS41 KOKX 270250 AAA
TAFLGA
TAF AMD
KLGA 270250Z 2703/2806 VRB03KT P6SM FEW060 SCT150 BKN250
     FM270700 06005KT P6SM VCSH FEW012 BKN120
      TEMPO 2707/2710 5SM -RA
     FM271000 05009KT 5SM -SHRA BKN012
     FM271200 05012G18KT 3SM -RA BR OVC009
     FM271500 04013G19KT 2SM RA BR OVC006
     FM280000 05009KT 2SM BR VCSH OVC005=

USA.gov is the U.S. government's official web portal to all federal, state and local government web resources and services.